createdAt,value
2019-06-20T00:01:38.651Z,4.40
2019-06-20T00:04:10.248Z,4.23
2019-06-20T00:06:40.345Z,3.90
2019-06-20T00:09:07.003Z,4.83
2019-06-20T00:11:33.524Z,4.30
2019-06-20T00:14:00.301Z,4.57
2019-06-20T00:16:26.951Z,4.47
2019-06-20T00:18:53.327Z,4.67
2019-06-20T00:21:24.681Z,4.73
2019-06-20T00:23:52.101Z,6.33
2019-06-20T00:26:18.827Z,5.47
2019-06-20T00:28:46.552Z,5.70
2019-06-20T00:31:13.327Z,5.70
2019-06-20T00:33:46.592Z,5.07
2019-06-20T00:36:13.084Z,5.83
2019-06-20T00:38:39.383Z,5.83
2019-06-20T00:41:07.010Z,5.87
2019-06-20T00:43:33.381Z,5.13
2019-06-20T00:45:59.844Z,5.87
2019-06-20T00:48:26.210Z,4.97
2019-06-20T00:50:52.874Z,3.90
2019-06-20T00:53:19.408Z,3.70
2019-06-20T00:55:45.786Z,4.73
2019-06-20T00:58:12.262Z,5.70
2019-06-20T01:00:48.787Z,4.10
2019-06-20T01:03:15.419Z,4.47
2019-06-20T01:05:41.784Z,5.00
2019-06-20T01:08:08.566Z,3.97
2019-06-20T01:10:34.880Z,4.87
2019-06-20T01:13:01.257Z,3.93
2019-06-20T01:15:27.892Z,3.90
2019-06-20T01:17:54.267Z,3.27
2019-06-20T01:20:21.133Z,3.50
2019-06-20T01:22:47.922Z,4.87
2019-06-20T01:25:33.888Z,4.37
2019-06-20T01:28:00.264Z,5.43
2019-06-20T01:30:26.596Z,4.40
2019-06-20T01:32:52.978Z,3.93
2019-06-20T01:35:19.357Z,3.67
2019-06-20T01:37:45.723Z,3.33
2019-06-20T01:40:12.243Z,3.00
2019-06-20T01:42:38.616Z,2.70
2019-06-20T01:45:07.081Z,3.40
2019-06-20T01:47:37.020Z,3.33
2019-06-20T01:50:05.412Z,3.63
2019-06-20T01:52:31.806Z,4.30
2019-06-20T01:55:00.296Z,5.00
2019-06-20T01:57:26.802Z,6.00
2019-06-20T01:59:53.500Z,5.43
2019-06-20T02:02:19.892Z,5.20
2019-06-20T02:04:46.248Z,4.20
2019-06-20T02:07:12.653Z,4.13
2019-06-20T02:09:39.789Z,4.70
2019-06-20T02:12:06.496Z,4.83
2019-06-20T02:14:35.032Z,6.07
2019-06-20T02:17:01.909Z,5.87
2019-06-20T02:19:28.332Z,6.57
2019-06-20T02:21:54.932Z,7.10
2019-06-20T02:24:21.427Z,7.77
2019-06-20T02:26:47.953Z,7.70
2019-06-20T02:29:14.340Z,6.63
2019-06-20T02:31:42.170Z,6.67
2019-06-20T02:34:08.525Z,7.60
2019-06-20T02:36:34.909Z,8.13
2019-06-20T02:39:01.561Z,8.30
2019-06-20T02:41:29.910Z,7.33
2019-06-20T02:43:56.800Z,6.60
2019-06-20T02:46:23.547Z,6.50
2019-06-20T02:48:49.950Z,6.70
2019-06-20T02:51:20.008Z,6.50
2019-06-20T02:53:46.367Z,6.80
2019-06-20T02:56:12.968Z,7.90
2019-06-20T02:58:39.547Z,7.27
2019-06-20T03:01:06.031Z,7.57
2019-06-20T03:03:32.689Z,6.07
2019-06-20T03:05:59.048Z,6.33
2019-06-20T03:08:31.171Z,6.33
2019-06-20T03:10:57.444Z,7.23
2019-06-20T03:13:24.938Z,6.23
2019-06-20T03:15:51.303Z,6.93
2019-06-20T03:18:17.793Z,6.43
2019-06-20T03:20:44.400Z,5.87
2019-06-20T03:23:12.853Z,6.73
2019-06-20T03:25:39.195Z,7.07
2019-06-20T03:28:05.580Z,6.40
2019-06-20T03:30:38.008Z,7.60
2019-06-20T03:33:04.414Z,7.30
2019-06-20T03:35:30.754Z,6.80
2019-06-20T03:37:57.376Z,6.90
2019-06-20T03:40:23.745Z,6.53
2019-06-20T03:42:50.082Z,5.07
2019-06-20T03:45:16.580Z,5.00
2019-06-20T03:47:43.253Z,4.07
2019-06-20T03:50:10.937Z,5.63
2019-06-20T03:52:37.663Z,4.50
2019-06-20T03:55:04.846Z,3.47
2019-06-20T03:57:31.281Z,2.73
2019-06-20T03:59:57.995Z,3.40
2019-06-20T04:02:24.663Z,9.30
2019-06-20T04:04:53.173Z,6.23
2019-06-20T04:07:19.529Z,6.47
2019-06-20T04:09:46.156Z,5.00
2019-06-20T04:12:12.704Z,3.77
2019-06-20T04:14:39.144Z,3.63
2019-06-20T04:17:07.538Z,3.20
2019-06-20T04:19:33.954Z,3.57
2019-06-20T04:22:00.304Z,3.33
2019-06-20T04:24:28.115Z,3.60
2019-06-20T04:26:54.504Z,3.20
2019-06-20T04:29:27.137Z,3.70
2019-06-20T04:31:53.508Z,4.87
2019-06-20T04:34:20.199Z,4.47
2019-06-20T04:36:48.140Z,4.90
2019-06-20T04:39:19.290Z,4.93
2019-06-20T04:41:43.238Z,4.97
2019-06-20T04:44:09.631Z,5.33
2019-06-20T04:46:54.384Z,5.73
2019-06-20T04:49:20.747Z,5.83
2019-06-20T04:51:47.057Z,5.47
2019-06-20T04:54:13.488Z,5.47
2019-06-20T04:56:39.835Z,6.03
2019-06-20T04:59:06.223Z,5.57
2019-06-20T05:01:32.933Z,6.37
2019-06-20T05:03:59.330Z,6.37
2019-06-20T05:06:25.997Z,6.33
2019-06-20T05:08:52.280Z,6.70
2019-06-20T05:11:19.950Z,7.13
2019-06-20T05:13:46.415Z,6.30
2019-06-20T05:16:13.186Z,5.33
2019-06-20T05:18:39.529Z,5.03
2019-06-20T05:21:07.889Z,4.80
2019-06-20T05:23:34.470Z,4.73
2019-06-20T05:26:00.852Z,5.60
2019-06-20T05:28:27.317Z,5.33
2019-06-20T05:31:06.454Z,3.70
2019-06-20T05:33:34.480Z,3.12
2019-06-20T05:36:01.121Z,3.53
2019-06-20T05:38:27.488Z,2.97
2019-06-20T05:40:53.951Z,4.33
2019-06-20T05:43:20.361Z,4.90
2019-06-20T05:45:48.900Z,4.33
2019-06-20T05:48:15.791Z,3.80
2019-06-20T05:50:47.421Z,3.67
2019-06-20T05:53:13.807Z,3.17
2019-06-20T05:55:46.388Z,3.17
2019-06-20T05:58:12.749Z,2.90
2019-06-20T06:00:39.315Z,2.57
2019-06-20T06:03:19.588Z,4.30
2019-06-20T06:05:50.633Z,3.83
2019-06-20T06:08:18.303Z,3.90
2019-06-20T06:10:51.627Z,4.63
2019-06-20T06:13:18.130Z,4.10
2019-06-20T06:15:46.483Z,4.57
2019-06-20T06:18:14.215Z,4.20
2019-06-20T06:20:45.104Z,4.43
2019-06-20T06:23:12.241Z,3.63
2019-06-20T06:25:40.721Z,4.40
2019-06-20T06:28:11.531Z,5.47
2019-06-20T06:30:36.781Z,3.70
2019-06-20T06:33:05.201Z,3.97
2019-06-20T06:35:35.289Z,3.47
2019-06-20T06:38:02.008Z,4.40
2019-06-20T06:40:30.785Z,4.30
2019-06-20T06:42:57.268Z,3.43
2019-06-20T06:45:23.959Z,3.70
2019-06-20T06:47:51.387Z,4.10
2019-06-20T06:50:24.348Z,3.53
2019-06-20T06:52:52.919Z,3.33
2019-06-20T06:55:19.383Z,3.67
2019-06-20T06:57:45.809Z,3.60
2019-06-20T07:00:15.161Z,3.40
2019-06-20T07:02:41.739Z,3.73
2019-06-20T07:05:11.001Z,4.13
2019-06-20T07:07:37.343Z,4.60
2019-06-20T07:10:05.892Z,4.13
2019-06-20T07:12:39.280Z,3.70
2019-06-20T07:15:07.517Z,4.10
2019-06-20T07:17:39.556Z,5.47
2019-06-20T07:20:07.274Z,5.37
2019-06-20T07:22:35.422Z,4.93
2019-06-20T07:25:05.036Z,4.57
2019-06-20T07:27:31.452Z,4.10
2019-06-20T07:29:57.815Z,3.63
2019-06-20T07:32:24.372Z,3.50
2019-06-20T07:34:51.886Z,3.80
2019-06-20T07:37:20.564Z,3.30
2019-06-20T07:39:47.099Z,2.73
2019-06-20T07:42:13.477Z,2.93
2019-06-20T07:44:40.865Z,2.90
2019-06-20T07:47:16.981Z,2.47
2019-06-20T07:49:37.119Z,2.23
2019-06-20T07:52:13.088Z,2.50
2019-06-20T07:54:39.437Z,2.23
2019-06-20T07:57:06.865Z,2.70
2019-06-20T07:59:36.349Z,2.00
2019-06-20T08:02:04.907Z,2.40
2019-06-20T08:04:34.745Z,2.10
2019-06-20T08:07:04.257Z,2.37
2019-06-20T08:09:44.722Z,2.27
2019-06-20T08:12:04.732Z,1.90
2019-06-20T08:14:31.499Z,1.83
2019-06-20T08:17:00.199Z,2.00
2019-06-20T08:19:26.601Z,2.00
2019-06-20T08:21:53.410Z,2.30
2019-06-20T08:24:27.856Z,1.90
2019-06-20T08:26:57.527Z,2.07
2019-06-20T08:29:24.594Z,1.90
2019-06-20T08:31:50.981Z,2.10
2019-06-20T08:34:18.642Z,1.50
2019-06-20T08:36:46.076Z,1.63
2019-06-20T08:39:12.342Z,1.97
2019-06-20T08:41:42.946Z,1.73
2019-06-20T08:44:12.305Z,2.00
2019-06-20T08:46:39.228Z,2.00
2019-06-20T08:49:06.256Z,2.20
2019-06-20T08:51:32.838Z,2.63
2019-06-20T08:53:59.313Z,3.07
2019-06-20T08:56:29.743Z,3.00
2019-06-20T08:58:57.339Z,2.80
2019-06-20T09:01:26.409Z,4.00
2019-06-20T09:03:56.991Z,2.87
2019-06-20T09:06:24.181Z,2.90
2019-06-20T09:08:50.537Z,2.50
2019-06-20T09:11:16.903Z,2.40
2019-06-20T09:13:43.837Z,2.40
2019-06-20T09:16:24.099Z,2.80
2019-06-20T09:18:44.237Z,2.20
2019-06-20T09:21:11.776Z,3.00
2019-06-20T09:23:38.222Z,3.40
2019-06-20T09:26:12.784Z,3.57
2019-06-20T09:28:40.160Z,3.77
2019-06-20T09:31:09.779Z,3.33
2019-06-20T09:33:37.184Z,3.00
2019-06-20T09:36:04.725Z,3.30
2019-06-20T09:38:37.258Z,2.90
2019-06-20T09:41:06.191Z,3.00
2019-06-20T09:43:33.089Z,2.87
2019-06-20T09:46:04.270Z,2.92
2019-06-20T09:48:30.625Z,2.60
2019-06-20T09:51:07.484Z,2.80
2019-06-20T09:53:34.831Z,3.37
2019-06-20T09:56:01.317Z,3.50
2019-06-20T09:58:38.586Z,3.20
2019-06-20T10:01:04.980Z,2.57
2019-06-20T10:03:31.344Z,2.20
2019-06-20T10:06:14.103Z,2.60
2019-06-20T10:08:36.911Z,2.42
2019-06-20T10:11:03.320Z,2.20
2019-06-20T10:13:37.020Z,1.90
2019-06-20T10:16:03.661Z,2.60
2019-06-20T10:18:31.080Z,2.65
2019-06-20T10:20:57.742Z,1.60
2019-06-20T10:23:24.172Z,2.20
2019-06-20T10:25:59.445Z,1.90
2019-06-20T10:28:26.976Z,1.50
2019-06-20T10:30:53.591Z,1.90
2019-06-20T10:33:21.080Z,1.90
2019-06-20T10:35:48.441Z,1.70
2019-06-20T10:38:18.826Z,1.50
2019-06-20T10:40:46.393Z,1.70
2019-06-20T10:43:15.373Z,1.37
2019-06-20T10:45:44.030Z,1.60
2019-06-20T10:48:14.490Z,1.82
2019-06-20T10:50:42.210Z,2.00
2019-06-20T10:53:10.409Z,1.90
2019-06-20T10:55:36.785Z,2.07
2019-06-20T10:58:04.772Z,1.90
2019-06-20T11:00:32.153Z,2.17
2019-06-20T11:03:00.703Z,2.00
2019-06-20T11:05:28.092Z,1.77
2019-06-20T11:07:54.476Z,1.70
2019-06-20T11:10:27.289Z,1.82
2019-06-20T11:12:56.013Z,1.57
2019-06-20T11:15:22.581Z,1.62
2019-06-20T11:17:48.969Z,1.35
2019-06-20T11:20:15.920Z,1.70
2019-06-20T11:22:47.956Z,1.72
2019-06-20T11:25:14.821Z,1.37
2019-06-20T11:27:42.645Z,1.70
2019-06-20T11:30:44.881Z,1.27
2019-06-20T11:33:00.686Z,1.67
2019-06-20T11:35:28.236Z,1.52
2019-06-20T11:37:54.656Z,1.42
2019-06-20T11:40:21.225Z,1.52
2019-06-20T11:42:47.831Z,1.37
2019-06-20T11:45:16.139Z,1.50
2019-06-20T11:47:42.653Z,1.47
2019-06-20T11:50:10.068Z,1.47
2019-06-20T11:52:41.058Z,1.40
2019-06-20T11:55:05.654Z,1.05
2019-06-20T11:57:32.418Z,1.00
2019-06-20T12:00:01.310Z,1.42
2019-06-20T12:02:28.982Z,1.27
2019-06-20T12:04:55.626Z,1.57
2019-06-20T12:07:23.036Z,1.35
2019-06-20T12:09:51.106Z,1.22
2019-06-20T12:12:17.545Z,1.30
2019-06-20T12:14:48.592Z,1.60
2019-06-20T12:17:15.141Z,1.35
2019-06-20T12:19:46.741Z,1.20
2019-06-20T12:22:13.249Z,1.50
2019-06-20T12:24:40.037Z,1.20
2019-06-20T12:27:07.747Z,1.42
2019-06-20T12:29:34.509Z,1.25
2019-06-20T12:32:06.182Z,1.30
2019-06-20T12:34:32.528Z,1.35
2019-06-20T12:37:00.051Z,1.35
2019-06-20T12:39:28.766Z,1.07
2019-06-20T12:41:55.257Z,1.60
2019-06-20T12:44:26.025Z,1.30
2019-06-20T12:46:57.474Z,1.20
2019-06-20T12:49:32.971Z,1.20
2019-06-20T12:52:00.347Z,1.20
2019-06-20T12:54:29.956Z,1.00
2019-06-20T12:57:01.618Z,1.27
2019-06-20T12:59:28.016Z,1.13
2019-06-20T13:01:58.680Z,1.30
2019-06-20T13:04:25.109Z,1.40
2019-06-20T13:06:54.899Z,1.03
2019-06-20T13:09:22.962Z,1.20
2019-06-20T13:11:52.564Z,1.10
2019-06-20T13:14:21.190Z,1.13
2019-06-20T13:16:48.179Z,1.30
2019-06-20T13:19:16.855Z,1.00
2019-06-20T13:21:44.681Z,1.27
2019-06-20T13:24:12.130Z,1.00
2019-06-20T13:26:42.311Z,1.00
2019-06-20T13:29:09.891Z,0.90
2019-06-20T13:31:51.836Z,1.00
2019-06-20T13:34:05.966Z,1.10
2019-06-20T13:36:33.758Z,1.00
2019-06-20T13:39:00.143Z,1.20
2019-06-20T13:41:26.565Z,1.20
2019-06-20T13:43:53.268Z,0.90
2019-06-20T13:46:19.665Z,1.17
2019-06-20T13:48:47.420Z,1.10
2019-06-20T13:51:14.005Z,1.00
2019-06-20T13:53:41.198Z,0.90
2019-06-20T13:56:10.950Z,0.80
2019-06-20T13:58:40.708Z,0.90
2019-06-20T14:01:07.601Z,0.80
2019-06-20T14:03:34.005Z,0.90
2019-06-20T14:06:00.618Z,0.83
2019-06-20T14:08:29.296Z,1.07
2019-06-20T14:11:00.221Z,1.00
2019-06-20T14:13:32.439Z,0.83
2019-06-20T14:15:59.806Z,1.17
2019-06-20T14:18:27.517Z,0.90
2019-06-20T14:20:55.269Z,0.80
2019-06-20T14:23:22.766Z,1.20
2019-06-20T14:25:51.509Z,1.10
2019-06-20T14:28:24.143Z,1.20
2019-06-20T14:30:52.497Z,1.20
2019-06-20T14:33:22.027Z,0.97
2019-06-20T14:35:49.723Z,1.00
2019-06-20T14:38:16.953Z,1.10
2019-06-20T14:40:45.313Z,1.00
2019-06-20T14:43:11.769Z,1.30
2019-06-20T14:45:38.456Z,1.43
2019-06-20T14:48:16.880Z,1.07
2019-06-20T14:50:44.603Z,1.30
2019-06-20T14:53:12.601Z,1.27
2019-06-20T14:55:40.022Z,1.50
2019-06-20T14:58:08.427Z,1.30
2019-06-20T15:00:35.106Z,1.20
2019-06-20T15:03:06.769Z,1.13
2019-06-20T15:05:40.903Z,1.33
2019-06-20T15:08:08.265Z,1.40
2019-06-20T15:10:37.005Z,1.10
2019-06-20T15:13:04.413Z,1.23
2019-06-20T15:15:38.908Z,1.23
2019-06-20T15:18:10.355Z,1.13
2019-06-20T15:20:36.717Z,1.00
2019-06-20T15:23:07.590Z,1.20
2019-06-20T15:25:34.288Z,1.50
2019-06-20T15:28:00.757Z,1.20
2019-06-20T15:30:30.603Z,1.10
2019-06-20T15:33:09.918Z,1.30
2019-06-20T15:35:34.591Z,1.10
2019-06-20T15:38:00.963Z,1.40
2019-06-20T15:40:27.271Z,1.10
2019-06-20T15:42:55.376Z,1.20
2019-06-20T15:45:26.896Z,1.30
2019-06-20T15:47:53.234Z,1.17
2019-06-20T15:50:19.956Z,1.07
2019-06-20T15:52:48.472Z,1.00
2019-06-20T15:55:18.942Z,0.90
2019-06-20T15:57:47.342Z,1.13
2019-06-20T16:00:14.602Z,1.10
2019-06-20T16:02:45.106Z,1.37
2019-06-20T16:05:12.292Z,1.07
2019-06-20T16:07:40.776Z,1.10
2019-06-20T16:10:09.160Z,0.90
2019-06-20T16:12:36.128Z,1.00
2019-06-20T16:15:10.060Z,0.97
2019-06-20T16:17:37.797Z,1.20
2019-06-20T16:20:06.122Z,1.00
2019-06-20T16:22:33.099Z,1.00
2019-06-20T16:25:02.158Z,1.20
2019-06-20T16:27:31.209Z,1.20
2019-06-20T16:29:59.711Z,1.20
2019-06-20T16:32:28.167Z,1.23
2019-06-20T16:34:59.986Z,0.90
2019-06-20T16:37:26.608Z,1.07
2019-06-20T16:39:54.196Z,1.20
2019-06-20T16:42:20.908Z,1.27
2019-06-20T16:44:47.301Z,1.20
2019-06-20T16:47:13.852Z,0.90
2019-06-20T16:49:40.307Z,1.10
2019-06-20T16:52:07.256Z,1.17
2019-06-20T16:54:34.680Z,1.10
2019-06-20T16:57:03.258Z,1.00
2019-06-20T16:59:29.648Z,1.30
2019-06-20T17:01:58.314Z,1.30
2019-06-20T17:04:24.766Z,1.03
2019-06-20T17:06:51.628Z,1.00
2019-06-20T17:09:18.086Z,0.90
2019-06-20T17:11:44.692Z,1.07
2019-06-20T17:14:11.209Z,0.93
2019-06-20T17:16:38.710Z,1.20
2019-06-20T17:19:05.378Z,1.10
2019-06-20T17:21:33.328Z,0.90
2019-06-20T17:24:09.584Z,1.03
2019-06-20T17:26:36.261Z,0.70
2019-06-20T17:29:03.168Z,0.90
2019-06-20T17:31:30.045Z,1.00
2019-06-20T17:33:57.758Z,0.90
2019-06-20T17:36:32.517Z,0.83
2019-06-20T17:39:03.022Z,0.70
2019-06-20T17:41:36.179Z,0.90
2019-06-20T17:44:02.636Z,1.00
2019-06-20T17:46:31.086Z,0.90
2019-06-20T17:48:58.552Z,0.93
2019-06-20T17:51:26.063Z,0.90
2019-06-20T17:53:52.601Z,1.13
2019-06-20T17:56:19.053Z,0.87
2019-06-20T17:58:45.782Z,0.80
2019-06-20T18:01:16.899Z,0.93
2019-06-20T18:03:48.394Z,1.07
2019-06-20T18:06:18.169Z,0.80
2019-06-20T18:08:44.499Z,0.83
2019-06-20T18:11:11.211Z,1.03
2019-06-20T18:13:41.025Z,0.90
2019-06-20T18:16:24.737Z,1.47
2019-06-20T18:18:40.801Z,1.30
2019-06-20T18:21:08.526Z,1.17
2019-06-20T18:23:35.989Z,1.00
2019-06-20T18:26:04.492Z,1.00
2019-06-20T18:28:30.907Z,1.10
2019-06-20T18:30:57.296Z,0.97
2019-06-20T18:33:23.673Z,1.00
2019-06-20T18:35:51.156Z,1.33
2019-06-20T18:38:17.884Z,0.90
2019-06-20T18:40:46.040Z,0.90
2019-06-20T18:43:13.088Z,1.10
2019-06-20T18:45:41.762Z,0.90
2019-06-20T18:48:08.441Z,0.80
2019-06-20T18:50:35.075Z,1.10
2019-06-20T18:53:08.532Z,1.30
2019-06-20T18:55:35.908Z,1.30
2019-06-20T18:58:02.672Z,1.37
2019-06-20T19:00:34.899Z,1.10
2019-06-20T19:03:02.042Z,1.40
2019-06-20T19:05:28.389Z,1.07
2019-06-20T19:08:01.923Z,1.00
2019-06-20T19:10:28.301Z,1.03
2019-06-20T19:12:54.795Z,1.33
2019-06-20T19:15:21.875Z,0.97
2019-06-20T19:17:50.480Z,1.10
2019-06-20T19:20:21.138Z,1.20
2019-06-20T19:22:47.686Z,1.33
2019-06-20T19:25:14.535Z,1.23
2019-06-20T19:27:46.616Z,1.40
2019-06-20T19:30:14.269Z,1.43
2019-06-20T19:32:41.920Z,1.37
2019-06-20T19:35:11.740Z,1.20
2019-06-20T19:37:39.411Z,1.43
2019-06-20T19:40:09.663Z,1.40
2019-06-20T19:42:36.879Z,1.40
2019-06-20T19:45:10.787Z,1.37
2019-06-20T19:47:38.055Z,1.20
2019-06-20T19:50:07.395Z,1.20
2019-06-20T19:52:34.592Z,1.37
2019-06-20T19:55:04.601Z,1.10
2019-06-20T19:57:33.303Z,1.00
2019-06-20T20:00:00.937Z,0.93
2019-06-20T20:02:29.477Z,1.00
2019-06-20T20:04:55.932Z,0.90
2019-06-20T20:07:22.542Z,1.00
2019-06-20T20:09:51.307Z,1.03
2019-06-20T20:12:25.782Z,0.87
2019-06-20T20:14:52.177Z,1.47
2019-06-20T20:17:18.653Z,1.40
2019-06-20T20:19:45.035Z,1.00
2019-06-20T20:22:13.496Z,1.00
2019-06-20T20:24:39.976Z,1.00
2019-06-20T20:27:07.917Z,1.20
2019-06-20T20:29:36.707Z,1.30
2019-06-20T20:32:03.287Z,1.30
2019-06-20T20:34:34.725Z,1.40
2019-06-20T20:37:03.195Z,1.40
2019-06-20T20:39:29.831Z,1.40
2019-06-20T20:41:56.215Z,1.33
2019-06-20T20:44:22.650Z,1.70
2019-06-20T20:46:49.012Z,1.50
2019-06-20T20:49:15.862Z,1.50
2019-06-20T20:51:42.376Z,1.27
2019-06-20T20:54:11.868Z,1.50
2019-06-20T20:56:38.252Z,1.20
2019-06-20T20:59:05.012Z,1.40
2019-06-20T21:01:35.318Z,1.50
2019-06-20T21:04:01.719Z,1.37
2019-06-20T21:06:30.401Z,1.43
2019-06-20T21:08:56.835Z,1.23
2019-06-20T21:11:23.556Z,1.10
2019-06-20T21:13:50.103Z,1.00
2019-06-20T21:16:16.466Z,1.17
2019-06-20T21:18:42.976Z,1.43
2019-06-20T21:21:09.484Z,1.10
2019-06-20T21:23:39.167Z,1.50
2019-06-20T21:26:06.024Z,1.10
2019-06-20T21:28:32.720Z,1.23
2019-06-20T21:30:59.394Z,1.13
2019-06-20T21:33:26.049Z,1.00
2019-06-20T21:36:07.872Z,0.90
2019-06-20T21:38:31.974Z,1.37
2019-06-20T21:40:58.432Z,1.20
2019-06-20T21:43:24.807Z,1.10
2019-06-20T21:45:52.103Z,1.30
2019-06-20T21:48:19.465Z,1.50
2019-06-20T21:50:45.800Z,1.60
2019-06-20T21:53:13.286Z,1.00
2019-06-20T21:55:41.032Z,1.20
2019-06-20T21:58:07.309Z,1.40
2019-06-20T22:00:39.366Z,1.30
2019-06-20T22:03:09.389Z,1.60
2019-06-20T22:05:38.371Z,1.50
2019-06-20T22:08:06.315Z,1.23
2019-06-20T22:10:32.652Z,1.47
2019-06-20T22:12:59.320Z,1.10
2019-06-20T22:15:26.003Z,1.10
2019-06-20T22:17:52.342Z,1.20
2019-06-20T22:20:19.208Z,1.10
2019-06-20T22:22:46.625Z,1.60
2019-06-20T22:25:13.918Z,1.27
2019-06-20T22:27:40.660Z,1.60
2019-06-20T22:30:16.023Z,1.80
2019-06-20T22:32:43.416Z,1.60
2019-06-20T22:35:10.151Z,1.40
2019-06-20T22:37:36.697Z,1.83
2019-06-20T22:40:06.744Z,1.57
2019-06-20T22:42:34.486Z,1.63
2019-06-20T22:45:07.229Z,1.60
2019-06-20T22:47:33.741Z,1.73
2019-06-20T22:50:00.488Z,1.30
2019-06-20T22:52:27.314Z,1.57
2019-06-20T22:54:53.744Z,1.40
2019-06-20T22:57:20.248Z,2.20
2019-06-20T22:59:46.810Z,1.30
2019-06-20T23:02:13.249Z,1.30
2019-06-20T23:04:39.680Z,1.43
2019-06-20T23:07:06.134Z,1.20
2019-06-20T23:09:37.476Z,1.30
2019-06-20T23:12:04.100Z,1.90
2019-06-20T23:14:30.876Z,1.40
2019-06-20T23:16:58.170Z,1.03
2019-06-20T23:19:24.661Z,1.40
2019-06-20T23:21:51.012Z,1.40
2019-06-20T23:24:17.400Z,1.17
2019-06-20T23:26:51.055Z,1.67
2019-06-20T23:29:21.817Z,1.67
2019-06-20T23:31:48.707Z,1.57
2019-06-20T23:34:15.173Z,1.73
2019-06-20T23:36:41.656Z,1.30
2019-06-20T23:39:08.216Z,1.60
2019-06-20T23:41:34.585Z,1.87
2019-06-20T23:44:00.917Z,1.97
2019-06-20T23:46:27.740Z,1.93
2019-06-20T23:48:54.569Z,2.20
2019-06-20T23:51:25.553Z,1.63
2019-06-20T23:53:50.794Z,2.10
2019-06-20T23:56:17.432Z,2.20
2019-06-20T23:58:49.775Z,1.80
